createdAt,value
2022-08-05T00:03:48.733Z,72.2
2022-08-05T00:08:55.161Z,72.8
2022-08-05T00:14:27.845Z,72.8
2022-08-05T00:20:20.377Z,72.7
2022-08-05T00:24:16.266Z,73.0
2022-08-05T00:29:25.560Z,72.8
2022-08-05T00:34:56.127Z,73.1
2022-08-05T00:39:58.966Z,73.1
2022-08-05T00:44:39.894Z,73.8
2022-08-05T00:49:51.747Z,73.4
2022-08-05T00:54:52.722Z,73.5
2022-08-05T00:59:49.087Z,73.7
2022-08-05T01:08:40.660Z,73.8
2022-08-05T01:10:11.880Z,74.2
2022-08-05T01:15:35.100Z,74.0
2022-08-05T01:20:25.724Z,74.1
2022-08-05T01:25:56.194Z,73.9
2022-08-05T01:30:38.529Z,74.7
2022-08-05T01:36:04.925Z,74.4
2022-08-05T01:40:51.279Z,74.4
2022-08-05T01:45:57.739Z,74.6
2022-08-05T01:51:51.919Z,74.5
2022-08-05T01:58:11.777Z,74.6
2022-08-05T02:01:17.110Z,74.7
2022-08-05T02:06:37.553Z,74.4
2022-08-05T02:11:33.323Z,74.8
2022-08-05T02:17:00.146Z,74.8
2022-08-05T02:21:43.335Z,74.9
2022-08-05T02:26:54.922Z,74.7
2022-08-05T02:31:45.254Z,74.5
2022-08-05T02:37:01.650Z,74.5
2022-08-05T02:42:01.266Z,74.6
2022-08-05T02:47:14.417Z,74.6
2022-08-05T02:52:40.850Z,74.9
2022-08-05T02:58:19.949Z,74.8
2022-08-05T03:08:06.693Z,77.9
2022-08-05T03:12:52.173Z,75.2
2022-08-05T03:18:29.812Z,76.0
2022-08-05T03:23:24.967Z,76.5
2022-08-05T03:28:36.539Z,77.0
2022-08-05T03:33:50.863Z,78.8
2022-08-05T03:38:33.345Z,78.4
2022-08-05T03:44:09.024Z,78.8
2022-08-05T03:55:52.519Z,81.1
2022-08-05T04:00:15.997Z,80.2
2022-08-05T04:05:40.216Z,80.2
2022-08-05T04:12:28.200Z,81.6
2022-08-05T04:14:54.908Z,81.5
2022-08-05T04:20:17.348Z,82.2
2022-08-05T04:25:57.332Z,83.0
2022-08-05T04:30:30.234Z,82.4
2022-08-05T04:35:17.528Z,82.2
2022-08-05T04:40:44.563Z,81.8
2022-08-05T04:46:13.416Z,82.5
2022-08-05T04:51:01.459Z,81.9
2022-08-05T04:56:32.203Z,82.1
2022-08-05T05:00:50.683Z,82.1
2022-08-05T05:09:05.490Z,82.3
2022-08-05T05:11:01.242Z,82.7
2022-08-05T05:16:30.441Z,82.2
2022-08-05T05:21:14.004Z,82.4
2022-08-05T05:26:10.464Z,82.6
2022-08-05T05:36:33.392Z,83.1
2022-08-05T05:42:39.883Z,83.1
2022-08-05T05:48:11.294Z,83.7
2022-08-05T05:52:38.012Z,85.9
2022-08-05T05:57:42.693Z,84.8
2022-08-05T06:02:46.376Z,84.2
2022-08-05T06:12:05.147Z,85.1
2022-08-05T06:13:23.670Z,85.8
2022-08-05T06:18:31.161Z,85.0
2022-08-05T06:23:11.947Z,85.3
2022-08-05T06:28:42.357Z,85.6
2022-08-05T06:34:36.804Z,86.9
2022-08-05T06:38:36.666Z,86.6
2022-08-05T06:43:59.826Z,86.4
2022-08-05T06:48:47.003Z,86.9
2022-08-05T06:54:12.030Z,86.3
2022-08-05T06:58:57.356Z,87.8
2022-08-05T07:14:20.388Z,87.3
2022-08-05T07:20:10.636Z,87.8
2022-08-05T07:24:29.948Z,87.4
2022-08-05T07:30:27.815Z,87.4
2022-08-05T07:34:42.549Z,87.4
2022-08-05T07:40:26.359Z,87.0
2022-08-05T07:44:54.923Z,88.2
2022-08-05T07:50:01.302Z,86.3
2022-08-05T07:54:57.673Z,86.9
2022-08-05T08:01:26.447Z,87.0
2022-08-05T08:05:20.669Z,90.0
2022-08-05T08:10:27.049Z,88.2
2022-08-05T08:16:35.791Z,88.2
2022-08-05T08:21:00.009Z,87.3
2022-08-05T08:26:00.179Z,86.4
2022-08-05T08:30:47.406Z,87.1
2022-08-05T08:35:53.790Z,86.7
2022-08-05T08:41:05.476Z,85.5
2022-08-05T08:46:16.221Z,85.9
2022-08-05T08:52:03.214Z,85.3
2022-08-05T08:56:27.096Z,85.3
2022-08-05T09:01:31.288Z,85.5
2022-08-05T09:06:37.610Z,84.9
2022-08-05T09:11:51.698Z,84.7
2022-08-05T09:27:03.248Z,84.8
2022-08-05T09:32:51.178Z,85.5
2022-08-05T09:37:16.796Z,86.1
2022-08-05T09:57:43.278Z,85.4
2022-08-05T10:03:12.092Z,84.6
2022-08-05T10:13:00.943Z,83.9
2022-08-05T10:18:07.301Z,84.6
2022-08-05T10:23:33.980Z,83.6
2022-08-05T10:28:29.304Z,84.4
2022-08-05T10:38:23.038Z,83.1
2022-08-05T10:43:39.437Z,82.8
2022-08-05T10:49:09.782Z,83.1
2022-08-05T10:53:52.184Z,82.6
2022-08-05T10:58:58.600Z,81.7
2022-08-05T11:04:09.028Z,81.7
2022-08-05T11:09:16.968Z,81.2
2022-08-05T11:14:17.774Z,80.6
2022-08-05T11:20:16.575Z,80.2
2022-08-05T11:24:31.171Z,79.7
2022-08-05T11:29:37.303Z,79.8
2022-08-05T11:34:51.525Z,78.3
2022-08-05T11:39:49.878Z,78.0
2022-08-05T11:46:15.572Z,75.5
2022-08-05T11:50:02.841Z,72.7
2022-08-05T11:55:13.297Z,73.2
2022-08-05T12:05:18.027Z,72.2
2022-08-05T12:10:43.037Z,72.2
2022-08-05T12:15:38.041Z,72.1
2022-08-05T12:20:41.419Z,72.7
2022-08-05T12:25:47.653Z,72.8
2022-08-05T12:30:54.041Z,72.8
2022-08-05T12:36:00.655Z,71.6
2022-08-05T12:41:12.475Z,70.0
2022-08-05T12:47:07.616Z,69.9
2022-08-05T12:52:14.006Z,69.1
2022-08-05T12:57:01.375Z,69.2
2022-08-05T13:02:08.192Z,68.5
2022-08-05T13:07:04.139Z,66.9
2022-08-05T13:12:28.494Z,66.7
2022-08-05T13:24:05.469Z,64.9
2022-08-05T13:28:52.481Z,64.0
2022-08-05T13:32:50.413Z,63.7
2022-08-05T13:39:24.407Z,62.4
2022-08-05T13:42:58.891Z,62.3
2022-08-05T13:48:08.784Z,61.7
2022-08-05T13:53:01.724Z,61.6
2022-08-05T13:58:42.148Z,61.4
2022-08-05T14:03:38.515Z,60.9
2022-08-05T14:09:32.969Z,61.1
2022-08-05T14:13:37.248Z,59.9
2022-08-05T14:19:04.504Z,59.7
2022-08-05T14:23:49.998Z,59.5
2022-08-05T14:29:20.409Z,59.2
2022-08-05T14:34:26.808Z,59.3
2022-08-05T14:40:33.312Z,59.5
2022-08-05T14:44:20.251Z,59.3
2022-08-05T14:49:21.938Z,58.8
2022-08-05T14:55:40.452Z,58.7
2022-08-05T14:59:35.719Z,59.2
2022-08-05T15:04:41.185Z,58.1
2022-08-05T15:09:51.374Z,57.9
2022-08-05T15:14:49.709Z,58.1
2022-08-05T15:20:00.316Z,58.6
2022-08-05T15:24:57.250Z,58.1
2022-08-05T15:35:45.181Z,57.9
2022-08-05T15:40:58.324Z,57.7
2022-08-05T15:45:38.851Z,57.9
2022-08-05T15:50:39.295Z,58.1
2022-08-05T15:56:01.283Z,58.4
2022-08-05T16:01:11.987Z,58.6
2022-08-05T16:06:19.920Z,58.6
2022-08-05T16:11:04.843Z,58.6
2022-08-05T16:22:00.835Z,59.0
2022-08-05T16:26:48.027Z,58.9
2022-08-05T16:31:57.038Z,59.1
2022-08-05T16:36:36.751Z,59.0
2022-08-05T16:42:15.814Z,59.1
2022-08-05T16:46:56.151Z,58.8
2022-08-05T16:52:00.110Z,59.4
2022-08-05T16:56:57.498Z,59.8
2022-08-05T17:02:18.120Z,59.8
2022-08-05T17:07:43.808Z,60.1
2022-08-05T17:18:34.694Z,60.7
2022-08-05T17:23:05.011Z,60.8
2022-08-05T17:27:47.363Z,60.9
2022-08-05T17:32:53.738Z,61.2
2022-08-05T17:38:00.419Z,61.4
2022-08-05T17:43:07.691Z,62.0
2022-08-05T17:48:12.858Z,62.6
2022-08-05T17:53:09.238Z,62.3
2022-08-05T18:08:45.773Z,62.6
2022-08-05T18:13:51.664Z,62.3
2022-08-05T18:24:22.883Z,62.6
2022-08-05T18:29:40.716Z,63.0
2022-08-05T18:34:16.588Z,63.4
2022-08-05T18:39:42.094Z,63.6
2022-08-05T18:44:35.181Z,63.6
2022-08-05T18:54:45.915Z,63.7
2022-08-05T19:00:02.534Z,63.5
2022-08-05T19:10:05.268Z,63.9
2022-08-05T19:16:28.527Z,64.1
2022-08-05T19:20:06.892Z,64.3
2022-08-05T19:25:30.079Z,64.5
2022-08-05T19:30:29.742Z,65.0
2022-08-05T19:35:55.872Z,65.1
2022-08-05T19:40:42.533Z,65.4
2022-08-05T19:45:54.333Z,65.5
2022-08-05T19:50:55.350Z,65.8
2022-08-05T19:56:14.066Z,65.9
2022-08-05T20:01:08.200Z,66.4
2022-08-05T20:11:40.941Z,66.8
2022-08-05T20:16:47.321Z,67.0
2022-08-05T20:21:33.692Z,67.1
2022-08-05T20:27:41.950Z,67.1
2022-08-05T20:31:41.981Z,67.4
2022-08-05T20:37:18.110Z,67.5
2022-08-05T20:42:21.706Z,67.7
2022-08-05T20:57:42.213Z,68.1
2022-08-05T21:02:26.780Z,68.2
2022-08-05T21:07:55.298Z,68.4
2022-08-05T21:17:44.026Z,68.6
2022-08-05T21:22:40.505Z,68.7
2022-08-05T21:27:56.940Z,68.9
2022-08-05T21:33:37.000Z,68.9
2022-08-05T21:38:09.699Z,68.9
2022-08-05T21:43:24.176Z,69.2
2022-08-05T21:48:22.621Z,69.3
2022-08-05T21:53:59.442Z,69.3
2022-08-05T21:58:36.606Z,69.5
2022-08-05T22:03:52.340Z,69.6
2022-08-05T22:08:48.149Z,69.5
2022-08-05T22:14:32.445Z,69.6
2022-08-05T22:19:01.253Z,69.6
2022-08-05T22:29:14.412Z,70.0
2022-08-05T22:34:40.436Z,70.1
2022-08-05T22:39:50.850Z,70.3
2022-08-05T22:44:33.319Z,70.3
2022-08-05T22:50:22.822Z,70.4
2022-08-05T22:55:19.167Z,70.6
2022-08-05T22:59:54.432Z,70.4
2022-08-05T23:15:13.429Z,70.8
2022-08-05T23:20:15.525Z,70.9
2022-08-05T23:25:55.296Z,70.9
2022-08-05T23:30:32.602Z,71.0
2022-08-05T23:41:09.445Z,71.2
2022-08-05T23:45:41.757Z,71.3
2022-08-05T23:51:02.166Z,71.2
2022-08-05T23:56:04.540Z,71.5
